Time,TemperatureF,DewpointF,PressureIn,WindDirection,WindDirectionDegrees,WindSpeedMPH,WindSpeedGustMPH,Humidity,HourlyPrecipIn,Conditions,Clouds,dailyrainin,SoftwareType,DateUTC
2013-01-02 00:32:00,10.0,8.0,-100.00,WNW,298,2.0,5.0,93,-99.99,,,-99.99,,2013-01-02 07:32:00,
2013-01-02 00:42:00,10.0,8.0,-100.00,WNW,298,2.0,5.0,93,-99.99,,,-99.99,,2013-01-02 07:42:00,
2013-01-02 00:52:00,10.0,8.0,-100.00,NNW,341,2.0,6.0,93,-99.99,,,-99.99,,2013-01-02 07:52:00,
2013-01-02 01:02:00,10.0,8.0,-100.00,NW,311,2.0,5.0,92,-99.99,,,-99.99,,2013-01-02 08:02:00,
2013-01-02 01:11:00,10.0,8.0,-100.00,NW,311,2.0,5.0,92,-99.99,,,-99.99,,2013-01-02 08:11:00,
2013-01-02 01:22:00,9.0,7.0,-100.00,WNW,295,2.0,5.0,93,-99.99,,,-99.99,,2013-01-02 08:22:00,
2013-01-02 01:32:00,9.0,7.0,-100.00,WNW,301,1.0,4.0,93,-99.99,,,-99.99,,2013-01-02 08:32:00,
2013-01-02 01:42:00,9.0,7.0,-100.00,WNW,301,1.0,4.0,93,-99.99,,,-99.99,,2013-01-02 08:42:00,
2013-01-02 01:53:00,9.0,8.0,-100.00,West,280,2.0,4.0,94,-99.99,,,-99.99,,2013-01-02 08:53:00,
2013-01-02 02:02:00,11.0,10.0,-100.00,NNW,340,1.0,3.0,96,-99.99,,,-99.99,,2013-01-02 09:02:00,
2013-01-02 02:12:00,11.0,10.0,-100.00,NNW,340,1.0,3.0,96,-99.99,,,-99.99,,2013-01-02 09:12:00,
2013-01-02 02:22:00,14.0,11.0,-100.00,North,349,4.0,7.0,88,-99.99,,,-99.99,,2013-01-02 09:22:00,
2013-01-02 02:32:00,15.0,12.0,-100.00,NNW,345,5.0,9.0,86,-99.99,,,-99.99,,2013-01-02 09:32:00,
2013-01-02 02:43:00,15.0,12.0,-100.00,NNW,345,5.0,9.0,86,-99.99,,,-99.99,,2013-01-02 09:43:00,
2013-01-02 02:52:00,14.0,11.0,-100.00,NNW,345,3.0,7.0,86,-99.99,,,-99.99,,2013-01-02 09:52:00,
2013-01-02 03:02:00,13.0,10.0,-100.00,NNW,345,3.0,7.0,86,-99.99,,,-99.99,,2013-01-02 10:02:00,
2013-01-02 03:12:00,13.0,10.0,-100.00,NNW,345,3.0,7.0,86,-99.99,,,-99.99,,2013-01-02 10:12:00,
2013-01-02 03:22:00,13.0,10.0,-100.00,NNW,343,2.0,5.0,87,-99.99,,,-99.99,,2013-01-02 10:22:00,
2013-01-02 03:32:00,13.0,10.0,-100.00,NNW,338,2.0,5.0,88,-99.99,,,-99.99,,2013-01-02 10:32:00,
2013-01-02 03:42:00,13.0,10.0,-100.00,NNW,338,2.0,5.0,88,-99.99,,,-99.99,,2013-01-02 10:42:00,
2013-01-02 03:52:00,13.0,10.0,-100.00,NNW,348,2.0,6.0,89,-99.99,,,-99.99,,2013-01-02 10:52:00,
2013-01-02 04:02:00,13.0,10.0,-100.00,NNW,341,2.0,5.0,88,-99.99,,,-99.99,,2013-01-02 11:02:00,
2013-01-02 04:11:00,13.0,10.0,-100.00,NNW,341,2.0,5.0,88,-99.99,,,-99.99,,2013-01-02 11:11:00,
2013-01-02 04:22:00,13.0,10.0,-100.00,North,352,3.0,7.0,88,-99.99,,,-99.99,,2013-01-02 11:22:00,
2013-01-02 04:32:00,12.0,9.0,-100.00,NW,312,1.0,5.0,87,-99.99,,,-99.99,,2013-01-02 11:32:00,
2013-01-02 04:42:00,12.0,9.0,-100.00,NW,312,1.0,5.0,87,-99.99,,,-99.99,,2013-01-02 11:42:00,
2013-01-02 04:52:00,13.0,10.0,-100.00,North,352,2.0,4.0,88,-99.99,,,-99.99,,2013-01-02 11:52:00,
2013-01-02 05:02:00,13.0,10.0,-100.00,North,356,2.0,4.0,86,-99.99,,,-99.99,,2013-01-02 12:02:00,
2013-01-02 05:12:00,13.0,10.0,-100.00,North,356,2.0,4.0,86,-99.99,,,-99.99,,2013-01-02 12:12:00,
2013-01-02 05:22:00,12.0,9.0,-100.00,North,351,1.0,4.0,89,-99.99,,,-99.99,,2013-01-02 12:22:00,
2013-01-02 05:32:00,11.0,9.0,-100.00,North,352,0.0,2.0,91,-99.99,,,-99.99,,2013-01-02 12:32:00,
2013-01-02 05:42:00,11.0,9.0,-100.00,North,352,0.0,2.0,91,-99.99,,,-99.99,,2013-01-02 12:42:00,
2013-01-02 05:53:00,11.0,9.0,-100.00,North,350,0.0,2.0,92,-99.99,,,-99.99,,2013-01-02 12:53:00,
2013-01-02 06:02:00,11.0,9.0,-100.00,North,350,0.0,2.0,93,-99.99,,,-99.99,,2013-01-02 13:02:00,
2013-01-02 06:12:00,11.0,9.0,-100.00,North,350,0.0,2.0,93,-99.99,,,-99.99,,2013-01-02 13:12:00,
2013-01-02 06:22:00,11.0,9.0,-100.00,WNW,294,0.0,2.0,92,-99.99,,,-99.99,,2013-01-02 13:22:00,
2013-01-02 06:32:00,11.0,9.0,-100.00,North,351,0.0,2.0,93,-99.99,,,-99.99,,2013-01-02 13:32:00,
2013-01-02 06:42:00,11.0,9.0,-100.00,North,351,0.0,2.0,93,-99.99,,,-99.99,,2013-01-02 13:42:00,
2013-01-02 06:52:00,10.0,8.0,-100.00,West,265,1.0,3.0,93,-99.99,,,-99.99,,2013-01-02 13:52:00,
2013-01-02 07:02:00,10.0,8.0,-100.00,NW,315,1.0,4.0,91,-99.99,,,-99.99,,2013-01-02 14:02:00,
2013-01-02 07:12:00,10.0,8.0,-100.00,NW,315,1.0,4.0,91,-99.99,,,-99.99,,2013-01-02 14:12:00,
2013-01-02 07:22:00,11.0,8.0,-100.00,NNW,341,1.0,3.0,88,-99.99,,,-99.99,,2013-01-02 14:22:00,
2013-01-02 07:32:00,9.0,7.0,-100.00,West,268,1.0,3.0,90,-99.99,,,-99.99,,2013-01-02 14:32:00,
2013-01-02 07:42:00,9.0,7.0,-100.00,West,268,1.0,3.0,90,-99.99,,,-99.99,,2013-01-02 14:42:00,
2013-01-02 07:53:00,9.0,8.0,-100.00,West,273,3.0,4.0,94,-99.99,,,-99.99,,2013-01-02 14:53:00,
2013-01-02 08:02:00,9.0,8.0,-100.00,NNW,344,1.0,4.0,94,-99.99,,,-99.99,,2013-01-02 15:02:00,
2013-01-02 08:12:00,9.0,8.0,-100.00,NNW,344,1.0,4.0,94,-99.99,,,-99.99,,2013-01-02 15:12:00,
2013-01-02 08:22:00,9.0,7.0,-100.00,North,357,0.0,2.0,93,-99.99,,,-99.99,,2013-01-02 15:22:00,
2013-01-02 08:33:00,8.0,7.0,-100.00,NNW,337,2.0,5.0,94,-99.99,,,-99.99,,2013-01-02 15:33:00,
2013-01-02 08:42:00,8.0,7.0,-100.00,NNW,337,2.0,5.0,94,-99.99,,,-99.99,,2013-01-02 15:42:00,
2013-01-02 08:53:00,8.0,7.0,-100.00,NW,316,2.0,6.0,95,-99.99,,,-99.99,,2013-01-02 15:53:00,
2013-01-02 09:02:00,9.0,8.0,-100.00,North,350,3.0,6.0,95,-99.99,,,-99.99,,2013-01-02 16:02:00,
2013-01-02 09:12:00,9.0,8.0,-100.00,North,350,3.0,6.0,95,-99.99,,,-99.99,,2013-01-02 16:12:00,
2013-01-02 09:22:00,10.0,8.0,-100.00,NNW,331,2.0,5.0,92,-99.99,,,-99.99,,2013-01-02 16:22:00,
2013-01-02 09:33:00,11.0,8.0,-100.00,NW,325,2.0,8.0,89,-99.99,,,-99.99,,2013-01-02 16:33:00,
2013-01-02 09:42:00,11.0,8.0,-100.00,NW,325,2.0,8.0,89,-99.99,,,-99.99,,2013-01-02 16:42:00,
2013-01-02 09:53:00,12.0,9.0,-100.00,WNW,287,2.0,5.0,87,-99.99,,,-99.99,,2013-01-02 16:53:00,
2013-01-02 10:02:00,13.0,9.0,-100.00,NNW,328,3.0,6.0,82,-99.99,,,-99.99,,2013-01-02 17:02:00,
2013-01-02 10:12:00,13.0,9.0,-100.00,NNW,328,3.0,6.0,82,-99.99,,,-99.99,,2013-01-02 17:12:00,
2013-01-02 10:22:00,14.0,9.0,-100.00,NNW,327,3.0,5.0,81,-99.99,,,-99.99,,2013-01-02 17:22:00,
2013-01-02 10:33:00,15.0,9.0,-100.00,NNW,332,2.0,5.0,78,-99.99,,,-99.99,,2013-01-02 17:33:00,
2013-01-02 10:43:00,15.0,9.0,-100.00,NNW,332,2.0,5.0,78,-99.99,,,-99.99,,2013-01-02 17:43:00,
2013-01-02 10:53:00,15.0,9.0,-100.00,NNW,328,2.0,5.0,78,-99.99,,,-99.99,,2013-01-02 17:53:00,
2013-01-02 11:02:00,15.0,9.0,-100.00,NNW,344,2.0,5.0,78,-99.99,,,-99.99,,2013-01-02 18:02:00,
2013-01-02 11:12:00,15.0,9.0,-100.00,NNW,344,2.0,5.0,78,-99.99,,,-99.99,,2013-01-02 18:12:00,
2013-01-02 11:22:00,16.0,10.0,-100.00,NNW,342,2.0,6.0,77,-99.99,,,-99.99,,2013-01-02 18:22:00,
2013-01-02 11:33:00,16.0,10.0,-100.00,NNW,329,3.0,7.0,78,-99.99,,,-99.99,,2013-01-02 18:33:00,
2013-01-02 11:42:00,16.0,10.0,-100.00,NNW,329,3.0,7.0,78,-99.99,,,-99.99,,2013-01-02 18:42:00,
2013-01-02 11:53:00,16.0,10.0,-100.00,NNW,342,3.0,7.0,78,-99.99,,,-99.99,,2013-01-02 18:53:00,
2013-01-02 12:02:00,16.0,10.0,-100.00,NNW,340,3.0,8.0,78,-99.99,,,-99.99,,2013-01-02 19:02:00,
2013-01-02 12:12:00,16.0,10.0,-100.00,NNW,340,3.0,8.0,78,-99.99,,,-99.99,,2013-01-02 19:12:00,
2013-01-02 12:22:00,16.0,10.0,-100.00,NNW,342,3.0,7.0,77,-99.99,,,-99.99,,2013-01-02 19:22:00,
2013-01-02 12:32:00,16.0,10.0,-100.00,NNW,341,4.0,7.0,77,-99.99,,,-99.99,,2013-01-02 19:32:00,
2013-01-02 12:42:00,16.0,10.0,-100.00,NNW,341,4.0,7.0,77,-99.99,,,-99.99,,2013-01-02 19:42:00,
2013-01-02 12:52:00,17.0,11.0,-100.00,NNW,327,3.0,6.0,76,-99.99,,,-99.99,,2013-01-02 19:52:00,
2013-01-02 13:02:00,17.0,11.0,-100.00,NNW,327,3.0,7.0,76,-99.99,,,-99.99,,2013-01-02 20:02:00,
2013-01-02 13:12:00,17.0,11.0,-100.00,NNW,327,3.0,7.0,76,-99.99,,,-99.99,,2013-01-02 20:12:00,
2013-01-02 13:22:00,17.0,10.0,-100.00,NNW,338,3.0,9.0,75,-99.99,,,-99.99,,2013-01-02 20:22:00,
2013-01-02 13:32:00,17.0,11.0,-100.00,NNW,330,3.0,8.0,77,-99.99,,,-99.99,,2013-01-02 20:32:00,
2013-01-02 13:42:00,17.0,11.0,-100.00,NNW,330,3.0,8.0,77,-99.99,,,-99.99,,2013-01-02 20:42:00,
2013-01-02 13:53:00,17.0,11.0,-100.00,NNW,330,3.0,7.0,77,-99.99,,,-99.99,,2013-01-02 20:53:00,
2013-01-02 14:02:00,17.0,11.0,-100.00,NNW,335,3.0,8.0,77,-99.99,,,-99.99,,2013-01-02 21:02:00,
2013-01-02 14:12:00,17.0,11.0,-100.00,NNW,335,3.0,8.0,77,-99.99,,,-99.99,,2013-01-02 21:12:00,
2013-01-02 14:22:00,17.0,12.0,-100.00,NW,318,3.0,6.0,80,-99.99,,,-99.99,,2013-01-02 21:22:00,
2013-01-02 14:32:00,18.0,11.0,-100.00,NW,306,3.0,6.0,74,-99.99,,,-99.99,,2013-01-02 21:32:00,
2013-01-02 14:42:00,18.0,11.0,-100.00,NW,306,3.0,6.0,74,-99.99,,,-99.99,,2013-01-02 21:42:00,
2013-01-02 14:53:00,19.0,9.0,-100.00,NNW,333,3.0,10.0,64,-99.99,,,-99.99,,2013-01-02 21:53:00,
2013-01-02 15:02:00,18.0,9.0,-100.00,NNW,343,4.0,13.0,66,-99.99,,,-99.99,,2013-01-02 22:02:00,
2013-01-02 15:12:00,18.0,9.0,-100.00,NNW,343,4.0,13.0,66,-99.99,,,-99.99,,2013-01-02 22:12:00,
2013-01-02 15:22:00,18.0,11.0,-100.00,NNW,339,3.0,6.0,73,-99.99,,,-99.99,,2013-01-02 22:22:00,
2013-01-02 15:32:00,18.0,11.0,-100.00,NW,323,3.0,9.0,72,-99.99,,,-99.99,,2013-01-02 22:32:00,
2013-01-02 15:42:00,18.0,11.0,-100.00,NW,323,3.0,9.0,72,-99.99,,,-99.99,,2013-01-02 22:42:00,
2013-01-02 15:53:00,18.0,9.0,-100.00,NNW,339,4.0,10.0,66,-99.99,,,-99.99,,2013-01-02 22:53:00,
2013-01-02 16:02:00,17.0,9.0,-100.00,NNW,345,6.0,11.0,69,-99.99,,,-99.99,,2013-01-02 23:02:00,
2013-01-02 16:12:00,17.0,9.0,-100.00,NNW,345,6.0,11.0,69,-99.99,,,-99.99,,2013-01-02 23:12:00,
2013-01-02 16:22:00,16.0,9.0,-100.00,NNW,337,4.0,11.0,73,-99.99,,,-99.99,,2013-01-02 23:22:00,
2013-01-02 16:32:00,15.0,8.0,-100.00,NNW,329,3.0,8.0,74,-99.99,,,-99.99,,2013-01-02 23:32:00,
2013-01-02 16:42:00,15.0,8.0,-100.00,NNW,329,3.0,8.0,74,-99.99,,,-99.99,,2013-01-02 23:42:00,
2013-01-02 16:53:00,15.0,8.0,-100.00,NNW,335,3.0,8.0,74,-99.99,,,-99.99,,2013-01-02 23:53:00,
2013-01-02 17:02:00,14.0,8.0,-100.00,NNW,330,3.0,6.0,77,-99.99,,,-99.99,,2013-01-03 00:02:00,
2013-01-02 17:12:00,14.0,8.0,-100.00,NNW,330,3.0,6.0,77,-99.99,,,-99.99,,2013-01-03 00:12:00,
2013-01-02 17:22:00,13.0,8.0,-100.00,NNW,327,2.0,6.0,81,-99.99,,,-99.99,,2013-01-03 00:22:00,
2013-01-02 17:37:00,12.0,8.0,-100.00,NNW,330,2.0,6.0,82,-99.99,,,-99.99,,2013-01-03 00:37:00,
2013-01-02 17:42:00,12.0,8.0,-100.00,NNW,330,2.0,6.0,82,-99.99,,,-99.99,,2013-01-03 00:42:00,
2013-01-02 17:52:00,13.0,7.0,-100.00,NNW,327,1.0,5.0,77,-99.99,,,-99.99,,2013-01-03 00:52:00,
2013-01-02 18:02:00,13.0,5.0,-100.00,NNW,348,2.0,5.0,70,-99.99,,,-99.99,,2013-01-03 01:02:00,
2013-01-02 18:12:00,13.0,5.0,-100.00,NNW,348,2.0,5.0,70,-99.99,,,-99.99,,2013-01-03 01:12:00,
2013-01-02 18:22:00,13.0,4.0,-100.00,NNW,331,2.0,7.0,66,-99.99,,,-99.99,,2013-01-03 01:22:00,
2013-01-02 18:32:00,13.0,3.0,-100.00,NNW,341,2.0,5.0,65,-99.99,,,-99.99,,2013-01-03 01:32:00,
2013-01-02 18:42:00,13.0,3.0,-100.00,NNW,341,2.0,5.0,65,-99.99,,,-99.99,,2013-01-03 01:42:00,
2013-01-02 18:52:00,13.0,3.0,-100.00,NNW,333,2.0,5.0,65,-99.99,,,-99.99,,2013-01-03 01:52:00,
2013-01-02 19:02:00,13.0,3.0,-100.00,NW,325,2.0,5.0,64,-99.99,,,-99.99,,2013-01-03 02:02:00,
2013-01-02 19:12:00,13.0,3.0,-100.00,NW,325,2.0,5.0,64,-99.99,,,-99.99,,2013-01-03 02:12:00,
2013-01-02 19:22:00,14.0,3.0,-100.00,NNW,341,2.0,7.0,60,-99.99,,,-99.99,,2013-01-03 02:22:00,
2013-01-02 19:32:00,14.0,2.0,-100.00,NNW,348,3.0,7.0,58,-99.99,,,-99.99,,2013-01-03 02:32:00,
2013-01-02 19:42:00,14.0,2.0,-100.00,NNW,348,3.0,7.0,58,-99.99,,,-99.99,,2013-01-03 02:42:00,
2013-01-02 19:52:00,14.0,2.0,-100.00,NNW,348,3.0,7.0,58,-99.99,,,-99.99,,2013-01-03 02:52:00,
2013-01-02 20:02:00,14.0,2.0,-100.00,NNW,347,4.0,10.0,58,-99.99,,,-99.99,,2013-01-03 03:02:00,
2013-01-02 20:12:00,14.0,2.0,-100.00,NNW,347,4.0,10.0,58,-99.99,,,-99.99,,2013-01-03 03:12:00,
2013-01-02 20:22:00,14.0,2.0,-100.00,NNW,344,3.0,12.0,59,-99.99,,,-99.99,,2013-01-03 03:22:00,
2013-01-02 20:46:00,13.0,2.0,-100.00,NNW,333,2.0,7.0,61,-99.99,,,-99.99,,2013-01-03 03:46:00,
2013-01-02 20:52:00,12.0,2.0,-100.00,NNW,343,2.0,7.0,63,-99.99,,,-99.99,,2013-01-03 03:52:00,
2013-01-02 21:02:00,13.0,3.0,-100.00,North,349,4.0,10.0,63,-99.99,,,-99.99,,2013-01-03 04:02:00,
2013-01-02 21:12:00,13.0,3.0,-100.00,North,349,4.0,10.0,63,-99.99,,,-99.99,,2013-01-03 04:12:00,
2013-01-02 21:22:00,13.0,3.0,-100.00,NNW,342,5.0,9.0,63,-99.99,,,-99.99,,2013-01-03 04:22:00,
2013-01-02 21:32:00,12.0,3.0,-100.00,NNW,344,3.0,8.0,65,-99.99,,,-99.99,,2013-01-03 04:32:00,
2013-01-02 21:42:00,12.0,3.0,-100.00,NNW,344,3.0,8.0,65,-99.99,,,-99.99,,2013-01-03 04:42:00,
2013-01-02 21:52:00,12.0,2.0,-100.00,NNW,341,3.0,9.0,63,-99.99,,,-99.99,,2013-01-03 04:52:00,
2013-01-02 22:03:00,11.0,1.0,-100.00,NW,322,1.0,6.0,64,-99.99,,,-99.99,,2013-01-03 05:03:00,
2013-01-02 22:12:00,11.0,1.0,-100.00,NW,322,1.0,6.0,64,-99.99,,,-99.99,,2013-01-03 05:12:00,
2013-01-02 22:22:00,11.0,1.0,-100.00,NW,324,2.0,4.0,64,-99.99,,,-99.99,,2013-01-03 05:22:00,
2013-01-02 22:33:00,11.0,1.0,-100.00,NW,306,1.0,4.0,64,-99.99,,,-99.99,,2013-01-03 05:33:00,
2013-01-02 22:42:00,11.0,1.0,-100.00,NW,306,1.0,4.0,64,-99.99,,,-99.99,,2013-01-03 05:42:00,
2013-01-02 22:52:00,11.0,1.0,-100.00,West,268,1.0,4.0,62,-99.99,,,-99.99,,2013-01-03 05:52:00,
2013-01-02 23:02:00,10.0,0.0,-100.00,West,265,2.0,5.0,62,-99.99,,,-99.99,,2013-01-03 06:02:00,
2013-01-02 23:12:00,10.0,0.0,-100.00,West,265,2.0,5.0,62,-99.99,,,-99.99,,2013-01-03 06:12:00,
2013-01-02 23:22:00,10.0,-1.0,-100.00,West,260,2.0,6.0,61,-99.99,,,-99.99,,2013-01-03 06:22:00,
2013-01-02 23:32:00,11.0,-1.0,-100.00,West,280,1.0,5.0,57,-99.99,,,-99.99,,2013-01-03 06:32:00,
2013-01-02 23:42:00,11.0,-1.0,-100.00,West,280,1.0,5.0,57,-99.99,,,-99.99,,2013-01-03 06:42:00,
2013-01-02 23:52:00,11.0,-2.0,-100.00,West,267,2.0,5.0,56,-99.99,,,-99.99,,2013-01-03 06:52:00,